Time;durP1;ratioP1;P1;durP2;ratioP2;P2;SDS_P1;SDS_P2;PMS_P1;PMS_P2;Temp;Humidity;BMP_temperature;BMP_pressure;BME280_temperature;BME280_humidity;BME280_pressure;Samples;Min_cycle;Max_cycle;Signal;HPM_P1;HPM_P2
2023/05/06 00:00:00;;;;;;;8.57;6.47;;;13.80;99.90;;;;;;5102666;28;20047;-42
2023/05/06 00:02:28;;;;;;;9.05;6.20;;;13.80;99.90;;;;;;5111243;28;20031;-46
2023/05/06 00:04:54;;;;;;;14.93;7.85;;;13.70;99.90;;;;;;5113333;28;20016;-42
2023/05/06 00:07:20;;;;;;;8.77;6.38;;;13.70;99.90;;;;;;5113542;28;20520;-42
2023/05/06 00:09:46;;;;;;;9.02;6.63;;;13.70;99.90;;;;;;5093949;28;20107;-43
2023/05/06 00:12:13;;;;;;;13.27;6.55;;;13.60;99.90;;;;;;5095438;28;20032;-61
2023/05/06 00:14:38;;;;;;;8.75;6.05;;;13.60;99.90;;;;;;5111181;28;20506;-42
2023/05/06 00:17:04;;;;;;;11.02;6.25;;;13.60;99.90;;;;;;5092753;28;20024;-41
2023/05/06 00:19:30;;;;;;;11.25;6.95;;;13.60;99.90;;;;;;5092749;28;20594;-41
2023/05/06 00:21:56;;;;;;;11.30;6.97;;;13.50;99.90;;;;;;5096535;28;20366;-41
2023/05/06 00:24:21;;;;;;;10.13;7.03;;;13.50;99.90;;;;;;5096468;28;20091;-42
2023/05/06 00:26:47;;;;;;;10.75;6.63;;;13.40;99.90;;;;;;5111682;28;20034;-43
2023/05/06 00:29:13;;;;;;;10.88;6.63;;;13.40;99.90;;;;;;5113149;28;20052;-42
2023/05/06 00:31:39;;;;;;;7.75;6.25;;;13.30;99.90;;;;;;5111731;28;20062;-43
2023/05/06 00:34:05;;;;;;;10.50;7.15;;;13.30;99.90;;;;;;5109678;28;20032;-41
2023/05/06 00:36:30;;;;;;;9.20;6.57;;;13.30;99.90;;;;;;5092586;28;20047;-42
2023/05/06 00:38:56;;;;;;;8.85;6.25;;;13.30;99.90;;;;;;5092338;28;20020;-45
2023/05/06 00:41:21;;;;;;;10.80;6.82;;;13.20;99.90;;;;;;5091827;28;20036;-41
2023/05/06 00:43:47;;;;;;;13.48;7.55;;;13.20;99.90;;;;;;5091982;28;20431;-57
2023/05/06 00:46:15;;;;;;;11.57;7.43;;;13.20;99.90;;;;;;5093099;28;20031;-39
2023/05/06 00:48:43;;;;;;;9.25;6.10;;;13.20;99.90;;;;;;5092736;28;20490;-43
2023/05/06 00:51:08;;;;;;;12.52;7.63;;;13.20;99.90;;;;;;5092550;28;20528;-42
2023/05/06 00:53:34;;;;;;;10.80;6.95;;;13.20;99.90;;;;;;5098331;28;20100;-67
2023/05/06 00:56:01;;;;;;;10.93;7.75;;;13.10;99.90;;;;;;5110887;28;20048;-43
2023/05/06 00:58:26;;;;;;;10.68;6.82;;;13.10;99.90;;;;;;5112833;28;20436;-41
2023/05/06 01:00:52;;;;;;;11.75;7.15;;;13.10;99.90;;;;;;5111880;28;20059;-41
2023/05/06 01:03:18;;;;;;;10.85;7.53;;;13.10;99.90;;;;;;5112331;28;20600;-40
2023/05/06 01:06:03;;;;;;;15.05;7.30;;;13.10;99.90;;;;;;5099322;28;20028;-43
2023/05/06 01:08:34;;;;;;;10.10;7.00;;;13.10;99.90;;;;;;5095667;28;20513;-41
2023/05/06 01:11:08;;;;;;;11.35;7.13;;;13.10;99.90;;;;;;5095986;28;20024;-41
2023/05/06 01:13:54;;;;;;;12.38;7.72;;;13.10;99.90;;;;;;5103624;28;20024;-41
2023/05/06 01:16:24;;;;;;;13.18;7.05;;;13.10;99.90;;;;;;5095619;28;20024;-41
2023/05/06 01:18:52;;;;;;;10.80;7.18;;;13.10;99.90;;;;;;5095326;28;20114;-41
2023/05/06 01:21:19;;;;;;;11.27;6.85;;;13.00;99.90;;;;;;5108764;28;20020;-42
2023/05/06 01:23:51;;;;;;;9.88;6.93;;;12.90;99.90;;;;;;5095698;28;20023;-32
2023/05/06 01:26:17;;;;;;;9.23;6.90;;;12.90;99.90;;;;;;5116068;27;20023;-34
2023/05/06 01:28:42;;;;;;;10.68;7.18;;;12.90;99.90;;;;;;5115939;28;20122;-34
2023/05/06 01:31:13;;;;;;;12.02;7.32;;;12.90;99.90;;;;;;5095273;28;20400;-32
2023/05/06 01:33:58;;;;;;;12.20;7.30;;;12.80;99.90;;;;;;5095445;28;20496;-36
2023/05/06 01:36:59;;;;;;;10.25;7.00;;;12.80;99.90;;;;;;5095621;28;20523;-35
2023/05/06 01:39:28;;;;;;;15.35;9.10;;;12.80;99.90;;;;;;5070221;28;20159;-33
2023/05/06 01:41:58;;;;;;;10.50;7.72;;;12.70;99.90;;;;;;5091003;28;20040;-35
2023/05/06 01:44:27;;;;;;;15.27;7.95;;;12.80;99.90;;;;;;5095106;28;20027;-35
2023/05/06 01:46:55;;;;;;;14.00;8.50;;;12.70;99.90;;;;;;5099379;28;20028;-32
2023/05/06 01:49:22;;;;;;;10.87;7.83;;;12.70;99.90;;;;;;5111257;27;20483;-34
2023/05/06 01:51:49;;;;;;;13.82;9.02;;;12.70;99.90;;;;;;5115511;28;20035;-37
2023/05/06 01:54:15;;;;;;;13.80;8.20;;;12.70;99.90;;;;;;5112968;28;20060;-32
2023/05/06 01:56:41;;;;;;;12.35;8.25;;;12.70;99.90;;;;;;5102846;28;20047;-38
2023/05/06 01:59:07;;;;;;;15.88;8.40;;;12.70;99.90;;;;;;5107909;28;20507;-34
2023/05/06 02:01:32;;;;;;;13.18;7.85;;;12.70;99.90;;;;;;5094862;28;20353;-36
2023/05/06 02:03:58;;;;;;;16.63;9.00;;;12.70;99.90;;;;;;5112192;28;20511;-39
2023/05/06 02:06:24;;;;;;;13.43;8.93;;;12.60;99.90;;;;;;5103626;28;20062;-34
2023/05/06 02:08:50;;;;;;;13.07;8.13;;;12.60;99.90;;;;;;5098353;28;20392;-34
2023/05/06 02:11:16;;;;;;;12.32;8.18;;;12.70;99.90;;;;;;5115143;28;20484;-37
2023/05/06 02:13:42;;;;;;;12.43;8.30;;;12.70;99.90;;;;;;5111320;28;20032;-37
2023/05/06 02:16:07;;;;;;;14.55;8.45;;;12.70;99.90;;;;;;5114933;28;20027;-36
2023/05/06 02:18:33;;;;;;;15.02;8.50;;;12.60;99.90;;;;;;5102622;28;20047;-35
2023/05/06 02:20:59;;;;;;;14.73;8.07;;;12.60;99.90;;;;;;5114892;28;20480;-35
2023/05/06 02:23:25;;;;;;;14.25;8.35;;;12.70;99.90;;;;;;5112251;28;20531;-38
2023/05/06 02:25:51;;;;;;;17.10;9.35;;;12.70;99.90;;;;;;5114844;28;20111;-42
2023/05/06 02:28:16;;;;;;;12.98;8.35;;;12.60;99.90;;;;;;5112499;28;20102;-37
2023/05/06 02:30:42;;;;;;;11.88;8.25;;;12.60;99.90;;;;;;5093933;28;20032;-34
2023/05/06 02:33:08;;;;;;;16.17;8.93;;;12.70;99.90;;;;;;5094277;28;20501;-35
2023/05/06 02:35:33;;;;;;;12.45;8.38;;;12.60;99.90;;;;;;5095703;28;20038;-37
2023/05/06 02:38:00;;;;;;;13.93;9.20;;;12.60;99.90;;;;;;5114858;28;20372;-35
2023/05/06 02:40:25;;;;;;;14.85;9.50;;;12.60;99.90;;;;;;5111666;28;20035;-35
2023/05/06 02:42:51;;;;;;;13.98;9.50;;;12.60;99.90;;;;;;5114424;28;20484;-35
2023/05/06 02:45:17;;;;;;;14.15;8.52;;;12.60;99.90;;;;;;5111379;28;20394;-36
2023/05/06 02:47:42;;;;;;;12.77;8.75;;;12.50;99.90;;;;;;5102602;28;20020;-40
2023/05/06 02:50:08;;;;;;;14.27;8.38;;;12.50;99.90;;;;;;5097548;28;20039;-35
2023/05/06 02:52:34;;;;;;;13.15;8.98;;;12.50;99.90;;;;;;5114277;28;20046;-35
2023/05/06 02:55:00;;;;;;;12.90;9.13;;;12.50;99.90;;;;;;5112244;28;20020;-36
2023/05/06 02:57:26;;;;;;;21.20;9.75;;;12.50;99.90;;;;;;5114017;28;20044;-32
2023/05/06 02:59:51;;;;;;;11.63;7.45;;;12.50;99.90;;;;;;5114151;28;20026;-33
2023/05/06 03:02:17;;;;;;;16.23;9.52;;;12.40;99.90;;;;;;5113104;28;20098;-32
2023/05/06 03:04:43;;;;;;;12.65;8.55;;;12.40;99.90;;;;;;5101817;28;20028;-35
2023/05/06 03:07:11;;;;;;;16.73;9.35;;;12.40;99.90;;;;;;5092367;28;20392;-36
2023/05/06 03:09:38;;;;;;;18.27;9.30;;;12.40;99.90;;;;;;5092638;28;20488;-34
2023/05/06 03:12:05;;;;;;;14.00;8.20;;;12.30;99.90;;;;;;5097064;28;20414;-32
2023/05/06 03:14:30;;;;;;;14.57;8.70;;;12.30;99.90;;;;;;5114232;28;20034;-35
2023/05/06 03:16:56;;;;;;;16.35;9.20;;;12.30;99.90;;;;;;5110752;28;20388;-33
2023/05/06 03:19:22;;;;;;;14.23;8.88;;;12.30;99.90;;;;;;5113872;28;20055;-38
2023/05/06 03:21:48;;;;;;;13.63;8.20;;;12.30;99.90;;;;;;5109951;28;20078;-33
2023/05/06 03:24:13;;;;;;;18.08;9.57;;;12.30;99.90;;;;;;5094682;28;20024;-31
2023/05/06 03:26:39;;;;;;;15.10;8.85;;;12.30;99.90;;;;;;5111910;28;20031;-33
2023/05/06 03:29:05;;;;;;;13.77;8.45;;;12.30;99.90;;;;;;5113651;28;20020;-30
2023/05/06 03:31:30;;;;;;;14.20;8.48;;;12.20;99.90;;;;;;5112056;28;20030;-31
2023/05/06 03:33:56;;;;;;;14.20;8.90;;;12.20;99.90;;;;;;5111246;28;20016;-32
2023/05/06 03:36:24;;;;;;;15.00;9.13;;;12.20;99.90;;;;;;5105778;28;20031;-40
2023/05/06 03:38:50;;;;;;;16.35;9.20;;;12.20;99.90;;;;;;5093202;28;20072;-33
2023/05/06 03:41:17;;;;;;;15.65;9.73;;;12.10;99.90;;;;;;5109943;28;20485;-37
2023/05/06 03:43:42;;;;;;;15.15;8.75;;;12.20;99.90;;;;;;5113673;28;20011;-33
2023/05/06 03:46:08;;;;;;;16.50;10.05;;;12.10;99.90;;;;;;5111713;28;20548;-34
2023/05/06 03:48:33;;;;;;;18.85;10.05;;;12.10;99.90;;;;;;5094971;28;20387;-34
2023/05/06 03:50:59;;;;;;;17.42;9.27;;;12.10;99.90;;;;;;5110637;28;20035;-36
2023/05/06 03:53:26;;;;;;;18.58;9.70;;;12.10;99.90;;;;;;5105765;28;20507;-37
2023/05/06 03:55:51;;;;;;;19.08;9.50;;;12.10;99.90;;;;;;5104486;28;20496;-33
2023/05/06 03:58:17;;;;;;;15.02;9.25;;;12.10;99.90;;;;;;5110453;28;20050;-34
2023/05/06 04:00:43;;;;;;;15.35;9.50;;;12.10;99.90;;;;;;5091535;28;20019;-36
2023/05/06 04:03:08;;;;;;;14.00;8.57;;;12.00;99.90;;;;;;5094797;28;20059;-31
2023/05/06 04:05:34;;;;;;;17.98;10.23;;;12.00;99.90;;;;;;5095756;28;20020;-36
2023/05/06 04:07:59;;;;;;;19.48;10.38;;;12.00;99.90;;;;;;5092664;28;20032;-31
2023/05/06 04:10:25;;;;;;;17.67;9.02;;;12.00;99.90;;;;;;5108956;28;20114;-33
2023/05/06 04:12:51;;;;;;;20.88;11.43;;;12.00;99.90;;;;;;5111621;28;20032;-31
2023/05/06 04:15:16;;;;;;;21.80;10.63;;;12.10;99.90;;;;;;5113050;28;20445;-34
2023/05/06 04:17:42;;;;;;;33.00;10.63;;;12.10;99.90;;;;;;5099930;28;20107;-40
2023/05/06 04:20:10;;;;;;;14.88;10.40;;;12.10;99.90;;;;;;5112165;28;20503;-36
2023/05/06 04:22:37;;;;;;;16.67;9.35;;;12.10;99.90;;;;;;5112272;28;20532;-32
2023/05/06 04:25:03;;;;;;;16.98;9.55;;;12.10;99.90;;;;;;5097177;28;20522;-36
2023/05/06 04:27:30;;;;;;;13.68;8.95;;;12.10;99.90;;;;;;5111709;28;20019;-35
2023/05/06 04:29:56;;;;;;;15.75;9.90;;;12.10;99.90;;;;;;5113271;28;20479;-34
2023/05/06 04:32:25;;;;;;;16.30;10.10;;;12.10;99.90;;;;;;5094597;28;20028;-32
2023/05/06 04:34:52;;;;;;;16.27;9.38;;;12.10;99.90;;;;;;5092102;28;20046;-35
2023/05/06 04:37:18;;;;;;;13.93;9.18;;;12.20;99.90;;;;;;5091220;28;20480;-34
2023/05/06 04:39:45;;;;;;;18.75;10.20;;;12.20;99.90;;;;;;5105400;28;20107;-36
2023/05/06 04:42:11;;;;;;;21.15;11.20;;;12.20;99.90;;;;;;5115438;28;20471;-37
2023/05/06 04:44:37;;;;;;;16.77;10.07;;;12.30;99.90;;;;;;5116841;27;20095;-36
2023/05/06 04:47:02;;;;;;;18.73;10.30;;;12.40;99.90;;;;;;5111070;27;20103;-32
2023/05/06 04:49:28;;;;;;;20.40;11.55;;;12.40;99.90;;;;;;5095375;28;20506;-34
2023/05/06 04:51:53;;;;;;;20.73;11.35;;;12.50;99.90;;;;;;5101475;28;20038;-36
2023/05/06 04:54:19;;;;;;;17.00;10.68;;;12.60;99.90;;;;;;5105389;28;20472;-35
2023/05/06 04:56:45;;;;;;;17.55;10.63;;;12.60;99.90;;;;;;5095605;28;20032;-37
2023/05/06 04:59:10;;;;;;;19.98;11.20;;;12.70;99.90;;;;;;5095802;28;20039;-41
2023/05/06 05:01:36;;;;;;;18.17;10.57;;;12.70;99.90;;;;;;5100107;28;20062;-42
2023/05/06 05:04:01;;;;;;;20.75;10.38;;;12.80;99.90;;;;;;5116554;28;20106;-71
2023/05/06 05:06:27;;;;;;;23.95;11.10;;;12.90;99.90;;;;;;5114745;28;20491;-40
2023/05/06 05:08:53;;;;;;;17.63;11.30;;;12.90;99.90;;;;;;5095933;28;20392;-39
2023/05/06 05:11:18;;;;;;;19.40;10.63;;;13.00;99.90;;;;;;5099729;28;20038;-39
2023/05/06 05:13:44;;;;;;;19.42;10.80;;;13.00;99.90;;;;;;5095918;28;20369;-39
2023/05/06 05:16:09;;;;;;;21.42;11.15;;;13.00;99.90;;;;;;5115682;28;20117;-40
2023/05/06 05:18:35;;;;;;;16.85;9.93;;;13.10;99.90;;;;;;5100495;28;20073;-39
2023/05/06 05:21:01;;;;;;;20.63;10.18;;;13.10;99.90;;;;;;5107584;28;20038;-39
2023/05/06 05:23:26;;;;;;;14.98;9.88;;;13.10;99.90;;;;;;5102551;28;20073;-40
2023/05/06 05:25:52;;;;;;;19.55;10.02;;;13.20;99.90;;;;;;5114620;28;20533;-41
2023/05/06 05:28:17;;;;;;;21.77;11.27;;;13.20;99.90;;;;;;5116024;28;20059;-42
2023/05/06 05:30:43;;;;;;;13.63;8.73;;;13.30;99.90;;;;;;5115540;28;20039;-39
2023/05/06 05:33:09;;;;;;;17.70;10.30;;;13.30;99.90;;;;;;5113396;28;20035;-42
2023/05/06 05:35:34;;;;;;;16.25;10.13;;;13.40;99.90;;;;;;5113757;28;20027;-40
2023/05/06 05:38:00;;;;;;;22.33;10.93;;;13.40;99.90;;;;;;5115919;28;20049;-41
2023/05/06 05:40:25;;;;;;;13.55;8.68;;;13.30;99.90;;;;;;5115825;28;20020;-39
2023/05/06 05:42:51;;;;;;;15.05;9.05;;;13.30;99.90;;;;;;5112132;28;20020;-39
2023/05/06 05:45:17;;;;;;;16.77;9.05;;;13.40;99.90;;;;;;5116012;28;20107;-40
2023/05/06 05:47:42;;;;;;;12.98;8.15;;;13.40;99.90;;;;;;5104328;28;20020;-37
2023/05/06 05:50:08;;;;;;;13.52;8.57;;;13.40;99.90;;;;;;5111516;28;20028;-40
2023/05/06 05:52:34;;;;;;;16.77;9.68;;;13.40;99.90;;;;;;5095064;28;20024;-39
2023/05/06 05:54:59;;;;;;;17.45;10.23;;;13.40;99.90;;;;;;5095539;28;20458;-41
2023/05/06 05:57:25;;;;;;;19.95;9.48;;;13.50;99.90;;;;;;5103798;28;20053;-72
2023/05/06 05:59:50;;;;;;;14.27;8.55;;;13.50;99.90;;;;;;5115404;28;20483;-39
2023/05/06 06:02:16;;;;;;;18.00;9.57;;;13.50;99.90;;;;;;5115383;28;20039;-41
2023/05/06 06:04:42;;;;;;;16.75;9.88;;;13.60;99.90;;;;;;5113411;28;20024;-38
2023/05/06 06:07:08;;;;;;;15.23;9.68;;;13.60;99.90;;;;;;5113736;28;20118;-40
2023/05/06 06:09:33;;;;;;;15.45;9.65;;;13.60;99.90;;;;;;5115527;28;20027;-40
2023/05/06 06:11:59;;;;;;;13.93;9.20;;;13.60;99.90;;;;;;5110496;28;20088;-40
2023/05/06 06:14:25;;;;;;;20.23;9.18;;;13.70;99.90;;;;;;5094813;28;20069;-41
2023/05/06 06:16:50;;;;;;;14.52;8.70;;;13.70;99.90;;;;;;5094756;28;20032;-40
2023/05/06 06:19:16;;;;;;;14.50;9.77;;;13.80;99.90;;;;;;5103641;28;20016;-39
2023/05/06 06:21:41;;;;;;;16.40;9.73;;;13.80;99.90;;;;;;5114765;28;20026;-38
2023/05/06 06:24:07;;;;;;;16.35;9.48;;;13.90;99.90;;;;;;5100628;28;20032;-56
2023/05/06 06:26:33;;;;;;;19.42;11.25;;;13.90;99.90;;;;;;5114842;28;20042;-40
2023/05/06 06:28:58;;;;;;;18.27;11.05;;;14.00;99.90;;;;;;5113628;28;20031;-40
2023/05/06 06:31:24;;;;;;;16.92;10.65;;;14.00;99.90;;;;;;5113379;28;20380;-40
2023/05/06 06:33:50;;;;;;;15.60;9.73;;;14.10;99.90;;;;;;5107837;28;20035;-39
2023/05/06 06:36:15;;;;;;;19.40;9.35;;;14.10;99.90;;;;;;5094335;28;20028;-40
2023/05/06 06:38:41;;;;;;;14.32;9.02;;;14.20;99.90;;;;;;5099880;28;20398;-38
2023/05/06 06:41:07;;;;;;;18.02;10.63;;;14.30;99.90;;;;;;5094804;28;20020;-39
2023/05/06 06:43:32;;;;;;;18.60;10.30;;;14.50;99.90;;;;;;5096921;28;20487;-38
2023/05/06 06:45:58;;;;;;;18.02;10.25;;;14.60;99.90;;;;;;5106871;28;20472;-39
2023/05/06 06:48:24;;;;;;;17.38;9.82;;;14.70;99.90;;;;;;5111221;28;20028;-47
2023/05/06 06:50:49;;;;;;;16.88;9.98;;;14.80;99.90;;;;;;5110808;28;20120;-32
2023/05/06 06:53:15;;;;;;;15.02;9.88;;;14.80;99.90;;;;;;5111740;28;20058;-40
2023/05/06 06:55:45;;;;;;;14.38;8.75;;;14.80;99.90;;;;;;5113231;28;20506;-42
2023/05/06 06:58:11;;;;;;;13.52;8.88;;;14.90;99.90;;;;;;5114256;28;20058;-39
2023/05/06 07:00:36;;;;;;;16.80;9.57;;;15.00;99.90;;;;;;5113699;28;20055;-40
2023/05/06 07:03:02;;;;;;;16.10;10.05;;;15.00;99.90;;;;;;5113311;28;20107;-59
2023/05/06 07:05:27;;;;;;;14.50;8.10;;;15.00;99.90;;;;;;5114075;28;20053;-41
2023/05/06 07:07:54;;;;;;;13.02;9.15;;;15.20;99.90;;;;;;5112539;28;20016;-40
2023/05/06 07:10:20;;;;;;;15.23;9.35;;;15.50;99.90;;;;;;5092025;28;20028;-39
2023/05/06 07:12:45;;;;;;;11.63;8.75;;;15.60;99.90;;;;;;5094091;28;20376;-40
2023/05/06 07:15:11;;;;;;;14.50;8.68;;;15.70;99.90;;;;;;5093199;28;20028;-39
2023/05/06 07:17:37;;;;;;;15.23;9.68;;;15.60;99.90;;;;;;5093892;28;20016;-41
2023/05/06 07:20:03;;;;;;;15.98;9.35;;;15.60;99.90;;;;;;5092875;28;20039;-40
2023/05/06 07:22:28;;;;;;;15.15;9.23;;;15.60;99.90;;;;;;5093461;28;20082;-41
2023/05/06 07:24:54;;;;;;;13.82;8.73;;;15.70;99.90;;;;;;5106451;28;20020;-43
2023/05/06 07:27:20;;;;;;;16.02;9.45;;;15.70;99.90;;;;;;5098149;28;20034;-43
2023/05/06 07:29:46;;;;;;;19.92;10.23;;;15.80;99.90;;;;;;5093759;28;20024;-42
2023/05/06 07:32:12;;;;;;;16.65;9.50;;;15.80;99.90;;;;;;5101665;28;20031;-41
2023/05/06 07:34:38;;;;;;;15.25;9.10;;;15.80;99.90;;;;;;5113640;28;20429;-45
2023/05/06 07:37:03;;;;;;;19.35;10.10;;;15.80;99.90;;;;;;5096066;28;20056;-51
2023/05/06 07:39:29;;;;;;;17.20;10.70;;;15.90;99.90;;;;;;5104917;28;20068;-41
2023/05/06 07:41:55;;;;;;;18.15;10.45;;;15.90;99.90;;;;;;5105479;28;20051;-43
2023/05/06 07:44:21;;;;;;;21.42;12.30;;;15.90;99.90;;;;;;5093953;28;20054;-46
2023/05/06 07:46:47;;;;;;;21.98;10.88;;;16.00;99.90;;;;;;5095662;28;20035;-39
2023/05/06 07:49:12;;;;;;;19.67;11.35;;;16.10;99.90;;;;;;5094412;28;20480;-41
2023/05/06 07:51:41;;;;;;;23.10;10.65;;;16.20;99.90;;;;;;5099604;28;20102;-43
2023/05/06 07:54:06;;;;;;;18.88;10.93;;;16.20;99.90;;;;;;5113425;28;20488;-41
2023/05/06 07:56:32;;;;;;;17.80;9.90;;;16.20;99.90;;;;;;5113087;28;20043;-42
2023/05/06 07:58:58;;;;;;;25.02;10.25;;;16.30;99.90;;;;;;5103639;28;20032;-42
2023/05/06 08:01:24;;;;;;;14.52;9.15;;;16.40;99.90;;;;;;5103717;28;20102;-43
2023/05/06 08:03:50;;;;;;;20.08;10.93;;;16.50;99.90;;;;;;5096244;28;20055;-44
2023/05/06 08:06:16;;;;;;;16.52;10.38;;;16.60;99.90;;;;;;5092436;28;20032;-42
2023/05/06 08:08:41;;;;;;;18.05;10.95;;;16.70;99.90;;;;;;5101948;28;20438;-42
2023/05/06 08:11:07;;;;;;;31.27;13.35;;;16.80;99.90;;;;;;5093727;28;20022;-45
2023/05/06 08:13:32;;;;;;;15.88;10.57;;;17.00;99.90;;;;;;5098160;28;21367;-43
2023/05/06 08:16:00;;;;;;;24.98;12.00;;;17.10;99.90;;;;;;5105299;28;20043;-42
2023/05/06 08:18:25;;;;;;;19.40;10.10;;;17.40;99.90;;;;;;5103288;28;20024;-42
2023/05/06 08:20:51;;;;;;;16.30;10.65;;;17.70;99.90;;;;;;5100063;28;20031;-42
2023/05/06 08:23:17;;;;;;;23.10;13.15;;;17.80;99.90;;;;;;5107688;28;20015;-41
2023/05/06 08:25:42;;;;;;;20.45;11.65;;;18.10;99.90;;;;;;5109940;28;20708;-45
2023/05/06 08:28:08;;;;;;;21.25;11.95;;;18.30;99.90;;;;;;5116378;28;20023;-46
2023/05/06 08:30:33;;;;;;;19.52;11.25;;;18.40;99.90;;;;;;5103016;28;20074;-36
2023/05/06 08:32:59;;;;;;;25.42;12.40;;;18.60;99.90;;;;;;5100744;28;20073;-41
2023/05/06 08:35:25;;;;;;;26.85;13.73;;;18.60;99.90;;;;;;5112100;28;20076;-43
2023/05/06 08:37:51;;;;;;;21.73;12.88;;;18.90;99.90;;;;;;5116068;28;20452;-41
2023/05/06 08:40:22;;;;;;;27.88;14.77;;;19.20;99.90;;;;;;5114860;28;20019;-40
2023/05/06 08:42:49;;;;;;;28.83;15.20;;;19.50;99.90;;;;;;5106420;28;20031;-41
2023/05/06 08:45:18;;;;;;;28.40;14.38;;;19.90;99.90;;;;;;5097239;28;20460;-43
2023/05/06 08:47:45;;;;;;;25.63;13.20;;;19.90;99.90;;;;;;5102915;28;20020;-40
2023/05/06 08:50:11;;;;;;;30.65;13.38;;;19.90;99.90;;;;;;5109279;28;20609;-44
2023/05/06 08:52:40;;;;;;;27.83;15.15;;;19.90;99.90;;;;;;5103329;28;20476;-42
2023/05/06 08:55:06;;;;;;;28.17;15.35;;;20.00;99.90;;;;;;5095945;28;20500;-42
2023/05/06 08:57:33;;;;;;;27.90;13.82;;;20.00;99.90;;;;;;5095472;28;20437;-47
2023/05/06 08:59:59;;;;;;;22.08;12.90;;;20.20;99.90;;;;;;5096603;28;20472;-46
2023/05/06 09:02:25;;;;;;;29.17;14.20;;;20.30;99.90;;;;;;5100583;28;20020;-44
2023/05/06 09:04:53;;;;;;;25.25;13.75;;;20.50;99.90;;;;;;5096379;28;20484;-43
2023/05/06 09:07:22;;;;;;;28.50;12.93;;;20.50;99.90;;;;;;5112129;28;20024;-42
2023/05/06 09:09:48;;;;;;;21.80;11.32;;;20.50;99.90;;;;;;5114401;28;20112;-37
2023/05/06 09:12:14;;;;;;;19.88;11.18;;;20.90;99.90;;;;;;5099297;27;20537;-42
2023/05/06 09:14:44;;;;;;;24.00;12.52;;;21.30;99.90;;;;;;5100860;28;20024;-42
2023/05/06 09:17:25;;;;;;;20.40;11.50;;;21.40;99.90;;;;;;5106415;28;20531;-42
2023/05/06 09:19:58;;;;;;;23.15;11.63;;;21.80;99.90;;;;;;5115006;28;20053;-42
2023/05/06 09:22:28;;;;;;;22.17;11.68;;;22.40;99.90;;;;;;5098500;28;20028;-41
2023/05/06 09:24:56;;;;;;;19.42;10.25;;;22.60;99.90;;;;;;5095021;28;20027;-42
2023/05/06 09:27:32;;;;;;;16.80;8.48;;;22.60;99.90;;;;;;5097191;28;20081;-42
2023/05/06 09:30:10;;;;;;;18.38;9.73;;;22.70;99.90;;;;;;5096455;28;20036;-41
2023/05/06 09:32:37;;;;;;;15.48;7.97;;;22.90;99.90;;;;;;5114717;28;20023;-43
2023/05/06 09:35:04;;;;;;;16.17;8.07;;;22.90;99.90;;;;;;5115907;28;20502;-41
2023/05/06 09:37:30;;;;;;;17.17;7.85;;;23.00;99.90;;;;;;5113003;28;20019;-43
2023/05/06 09:39:57;;;;;;;8.88;5.65;;;23.20;99.90;;;;;;5101416;28;20012;-47
2023/05/06 09:42:25;;;;;;;10.98;6.50;;;23.20;99.90;;;;;;5097052;28;20366;-41
2023/05/06 09:44:53;;;;;;;18.75;8.07;;;23.20;99.90;;;;;;5097646;28;20616;-44
2023/05/06 09:47:21;;;;;;;11.30;5.65;;;23.10;99.90;;;;;;5100767;28;20474;-42
2023/05/06 09:49:47;;;;;;;9.50;6.38;;;22.90;99.90;;;;;;5107214;28;20526;-43
2023/05/06 09:52:12;;;;;;;12.82;6.93;;;22.80;99.90;;;;;;5108034;28;20051;-42
2023/05/06 09:54:39;;;;;;;13.68;6.38;;;22.80;99.90;;;;;;5115451;28;20020;-43
2023/05/06 09:57:06;;;;;;;9.10;5.75;;;22.80;99.90;;;;;;5101239;28;20051;-41
2023/05/06 09:59:32;;;;;;;11.40;6.53;;;22.90;99.90;;;;;;5102593;28;20027;-40
2023/05/06 10:01:59;;;;;;;13.00;6.68;;;22.90;99.90;;;;;;5114239;28;20269;-41
2023/05/06 10:04:26;;;;;;;9.88;7.00;;;23.10;99.90;;;;;;5105983;28;20031;-41
2023/05/06 10:06:55;;;;;;;12.10;7.13;;;22.70;99.90;;;;;;5108940;28;20368;-39
2023/05/06 10:09:23;;;;;;;10.90;6.25;;;22.40;99.90;;;;;;5106090;28;20096;-47
2023/05/06 10:11:51;;;;;;;10.32;5.97;;;22.20;99.90;;;;;;5101795;27;20047;-42
2023/05/06 10:14:18;;;;;;;12.30;6.05;;;22.10;99.90;;;;;;5110963;28;20421;-36
2023/05/06 10:16:48;;;;;;;8.52;5.47;;;21.70;99.90;;;;;;5099244;28;20072;-40
2023/05/06 10:19:21;;;;;;;7.53;5.20;;;21.50;99.90;;;;;;5101432;28;20039;-39
2023/05/06 10:21:53;;;;;;;6.18;4.55;;;21.40;99.90;;;;;;5105053;28;20446;-41
2023/05/06 10:24:27;;;;;;;9.73;6.15;;;21.60;99.90;;;;;;5110155;27;20030;-41
2023/05/06 10:26:55;;;;;;;14.75;5.57;;;21.70;99.90;;;;;;5107054;28;20535;-42
2023/05/06 10:29:24;;;;;;;;;;;21.70;99.90;;;;;;5105293;28;20088;-41
2023/05/06 10:31:54;;;;;;;7.65;5.03;;;21.50;99.90;;;;;;5106179;28;20344;-42
2023/05/06 10:34:21;;;;;;;9.57;6.07;;;21.30;99.90;;;;;;5104549;28;20027;-41
2023/05/06 10:36:52;;;;;;;16.83;6.35;;;21.50;99.90;;;;;;5107080;28;20105;-40
2023/05/06 10:39:19;;;;;;;8.57;5.85;;;21.50;99.90;;;;;;5101655;28;20085;-43
2023/05/06 10:41:45;;;;;;;16.20;5.97;;;21.40;99.90;;;;;;5098248;28;20510;-40
2023/05/06 10:44:11;;;;;;;14.40;6.53;;;21.50;99.90;;;;;;5107532;28;20491;-39
2023/05/06 10:47:07;;;;;;;9.32;6.40;;;21.50;99.90;;;;;;5103120;28;20028;-38
2023/05/06 10:49:33;;;;;;;10.82;5.55;;;21.80;99.90;;;;;;5094426;28;20073;-39
2023/05/06 10:52:13;;;;;;;9.90;5.90;;;22.00;99.90;;;;;;5099323;28;20028;-40
2023/05/06 10:54:49;;;;;;;16.23;5.75;;;22.00;99.90;;;;;;5107992;28;20052;-40
2023/05/06 10:57:15;;;;;;;12.15;5.43;;;22.00;99.90;;;;;;5096726;28;20507;-40
2023/05/06 10:59:45;;;;;;;11.38;5.75;;;22.00;99.90;;;;;;5096879;28;20052;-41
2023/05/06 11:02:12;;;;;;;8.32;5.68;;;22.20;99.90;;;;;;5097648;27;20394;-40
2023/05/06 11:04:41;;;;;;;10.40;5.38;;;22.30;99.90;;;;;;5097997;28;20022;-40
2023/05/06 11:07:07;;;;;;;8.63;5.53;;;22.20;99.90;;;;;;5096246;28;20502;-41
2023/05/06 11:09:32;;;;;;;10.75;4.65;;;22.30;99.90;;;;;;5101133;28;20024;-39
2023/05/06 11:12:00;;;;;;;8.43;6.07;;;22.40;99.90;;;;;;5110095;28;20073;-40
2023/05/06 11:14:35;;;;;;;12.88;5.78;;;22.40;99.90;;;;;;5110850;28;20027;-40
2023/05/06 11:17:06;;;;;;;9.32;5.60;;;22.20;99.90;;;;;;5103392;28;20031;-39
2023/05/06 11:19:34;;;;;;;12.02;5.38;;;22.10;99.90;;;;;;5107857;28;20026;-39
2023/05/06 11:22:02;;;;;;;10.60;4.68;;;21.90;99.90;;;;;;5106429;28;20485;-40
2023/05/06 11:24:30;;;;;;;8.45;5.15;;;21.80;99.90;;;;;;5108209;28;20380;-59
2023/05/06 11:26:58;;;;;;;8.63;4.50;;;21.80;99.90;;;;;;5097375;28;20503;-38
2023/05/06 11:29:24;;;;;;;;;;;21.90;99.90;;;;;;5096581;28;20484;-40
2023/05/06 11:31:52;;;;;;;8.63;4.70;;;22.10;99.90;;;;;;5107976;28;19933;-40
2023/05/06 11:34:26;;;;;;;9.15;5.00;;;22.30;99.90;;;;;;5103176;28;20020;-42
2023/05/06 11:37:05;;;;;;;9.73;5.05;;;22.40;99.90;;;;;;5108019;28;20016;-41
2023/05/06 11:39:33;;;;;;;12.98;6.03;;;22.60;99.90;;;;;;5105057;28;20487;-38
2023/05/06 11:42:08;;;;;;;;;;;22.80;99.90;;;;;;5105390;28;20019;-40
2023/05/06 11:44:36;;;;;;;9.07;5.28;;;22.90;99.90;;;;;;5112849;28;19912;-40
2023/05/06 11:47:04;;;;;;;6.07;5.00;;;22.70;99.90;;;;;;5104110;28;20511;-41
2023/05/06 11:49:40;;;;;;;9.60;5.55;;;22.40;99.90;;;;;;5096050;27;20070;-39
2023/05/06 11:52:10;;;;;;;8.77;5.53;;;22.10;99.90;;;;;;5107075;28;20547;-39
2023/05/06 11:54:40;;;;;;;8.80;5.00;;;22.20;99.90;;;;;;5101852;28;20468;-41
2023/05/06 11:57:08;;;;;;;10.07;5.90;;;22.20;99.90;;;;;;5112858;28;20055;-41
2023/05/06 11:59:36;;;;;;;9.77;5.93;;;22.20;99.90;;;;;;5097326;28;20518;-40
2023/05/06 12:02:11;;;;;;;8.57;5.50;;;22.10;99.90;;;;;;5107910;28;20024;-39
2023/05/06 12:04:41;;;;;;;10.45;5.82;;;21.90;99.90;;;;;;5111667;28;20386;-41
2023/05/06 12:07:08;;;;;;;9.43;5.78;;;21.80;99.90;;;;;;5109942;28;20023;-41
2023/05/06 12:09:36;;;;;;;7.35;5.07;;;21.80;99.90;;;;;;5106349;28;20024;-44
2023/05/06 12:12:02;;;;;;;;;;;22.10;99.90;;;;;;5093748;28;20093;-40
2023/05/06 12:14:28;;;;;;;9.43;4.68;;;22.40;99.90;;;;;;5092557;28;19912;-41
2023/05/06 12:16:54;;;;;;;7.15;4.93;;;22.70;99.90;;;;;;5092848;28;20537;-39
2023/05/06 12:19:20;;;;;;;5.55;4.25;;;22.80;99.90;;;;;;5110361;28;20476;-40
2023/05/06 12:21:46;;;;;;;4.70;4.13;;;22.60;99.90;;;;;;5113475;28;20107;-41
2023/05/06 12:24:12;;;;;;;9.00;5.22;;;22.40;99.90;;;;;;5113442;28;20101;-40
2023/05/06 12:26:43;;;;;;;4.07;3.55;;;22.20;99.90;;;;;;5113034;28;20030;-41
2023/05/06 12:29:10;;;;;;;10.27;3.47;;;22.30;99.90;;;;;;5113252;28;20484;-41
2023/05/06 12:31:36;;;;;;;6.85;3.65;;;22.50;99.90;;;;;;5110591;28;20028;-41
2023/05/06 12:34:02;;;;;;;7.75;4.40;;;22.70;99.90;;;;;;5107000;28;20570;-38
2023/05/06 12:36:28;;;;;;;12.18;3.90;;;22.60;99.90;;;;;;5105647;28;20410;-40